Kezdőlap
METAR-TAF:

METAR-TAF

Repülőterek :

Nii Ōshima, Japán

földrajzi szélesség: 34-47N, földrajzi hosszúság: 139-22E, magasság: 38 m

Jelenlegi meteorológiai megfigyelések

A jelentés 50 perccel ezelõtt készült, 01:00 UTC
Délnyugati szél 5 kt, déli és nyugat-északnyugati között változik
Hőmérséklet 22°C
Páratartalom 69%
Légköri nyomás 1007 hPa
Látótávolság 10 km, vagy több
Kevés felhő 2500 lábon
Szakadozott felhőzet

METAR: RJTO 240100Z 22005KT 190V290 9999 FEW025 BKN/// 22/16 Q1007

Idő: 10:50 (01:50 UTC)


TAF: hiányzik

Meteorológiai megfigyelések és előrejelzések több, mint 4000 repülőtéren (METAR és TAF jelentéseket).

A térképen piros és sárga pontok jelzik az elérhető meteorológiai állomásokat.

Mozgassa az egeret a pont fölött, hogy megjelenjen az állomás neve.

Azután kattintson az időjárási megfigyelések és előrejelzések megtekintéséhez.

A térkép megváltoztatása: kattintson a fekete keresztel jelölt zöld gombra ráközelítéshez, a vonallal jelölt zöld gombra távolításhoz, vagy a zöld nyilakra a szomszédos térképek eléréséhez.


METAR-TAF: